createdAt,value
2019-03-22T00:01:13.434Z,91.80
2019-03-22T00:03:39.582Z,90.70
2019-03-22T00:06:05.719Z,90.90
2019-03-22T00:08:32.076Z,90.90
2019-03-22T00:10:58.255Z,91.20
2019-03-22T00:13:24.647Z,91.50
2019-03-22T00:15:50.812Z,90.60
2019-03-22T00:18:16.963Z,90.70
2019-03-22T00:20:43.106Z,90.90
2019-03-22T00:23:09.262Z,90.90
2019-03-22T00:25:35.507Z,90.70
2019-03-22T00:28:01.648Z,90.40
2019-03-22T00:30:27.800Z,91.10
2019-03-22T00:32:54.253Z,90.70
2019-03-22T00:35:20.502Z,90.70
2019-03-22T00:37:46.656Z,91.00
2019-03-22T00:40:13.210Z,91.00
2019-03-22T00:42:40.710Z,91.10
2019-03-22T00:45:09.049Z,91.10
2019-03-22T00:47:35.215Z,91.30
2019-03-22T00:50:04.181Z,90.90
2019-03-22T00:52:30.326Z,91.30
2019-03-22T00:54:56.478Z,91.30
2019-03-22T00:57:28.538Z,91.30
2019-03-22T00:59:51.694Z,91.30
2019-03-22T01:02:17.956Z,91.20
2019-03-22T01:04:44.122Z,91.60
2019-03-22T01:07:11.694Z,91.60
2019-03-22T01:09:37.910Z,91.80
2019-03-22T01:12:04.038Z,91.50
2019-03-22T01:14:30.186Z,91.70
2019-03-22T01:16:56.347Z,91.70
2019-03-22T01:19:22.495Z,91.30
2019-03-22T01:21:48.634Z,92.10
2019-03-22T01:24:14.778Z,91.80
2019-03-22T01:26:40.922Z,92.40
2019-03-22T01:29:07.066Z,92.70
2019-03-22T01:31:33.223Z,92.80
2019-03-22T01:33:59.400Z,94.00
2019-03-22T01:36:25.589Z,94.30
2019-03-22T01:38:51.770Z,94.30
2019-03-22T01:41:17.920Z,94.10
2019-03-22T01:43:44.062Z,94.00
2019-03-22T01:46:10.219Z,94.10
2019-03-22T01:48:36.368Z,94.00
2019-03-22T01:51:02.521Z,94.30
2019-03-22T01:53:28.672Z,93.20
2019-03-22T01:55:55.139Z,92.60
2019-03-22T01:58:21.339Z,92.80
2019-03-22T02:00:47.492Z,93.50
2019-03-22T02:03:13.636Z,92.40
2019-03-22T02:05:39.921Z,93.30
2019-03-22T02:08:06.059Z,93.50
2019-03-22T02:10:32.239Z,94.00
2019-03-22T02:12:58.393Z,93.80
2019-03-22T02:15:24.544Z,94.20
2019-03-22T02:17:50.999Z,94.50
2019-03-22T02:20:17.240Z,94.40
2019-03-22T02:22:43.386Z,94.40
2019-03-22T02:25:09.894Z,94.40
2019-03-22T02:27:36.521Z,94.30
2019-03-22T02:30:06.156Z,94.30
2019-03-22T02:32:32.324Z,94.20
2019-03-22T02:34:58.573Z,94.60
2019-03-22T02:37:24.723Z,94.30
2019-03-22T02:39:50.865Z,94.10
2019-03-22T02:42:17.131Z,94.10
2019-03-22T02:44:43.474Z,94.50
2019-03-22T02:47:09.754Z,94.50
2019-03-22T02:49:35.888Z,92.40
2019-03-22T02:52:02.191Z,92.10
2019-03-22T02:54:28.380Z,93.70
2019-03-22T02:56:54.536Z,94.00
2019-03-22T02:59:20.668Z,94.10
2019-03-22T03:01:47.101Z,94.20
2019-03-22T03:04:13.239Z,93.80
2019-03-22T03:06:39.387Z,94.50
2019-03-22T03:09:05.551Z,93.80
2019-03-22T03:11:31.704Z,94.00
2019-03-22T03:13:57.953Z,94.40
2019-03-22T03:16:24.124Z,94.30
2019-03-22T03:18:50.272Z,94.30
2019-03-22T03:21:16.735Z,94.00
2019-03-22T03:23:42.871Z,94.30
2019-03-22T03:26:09.016Z,93.00
2019-03-22T03:28:37.242Z,92.90
2019-03-22T03:31:03.195Z,94.10
2019-03-22T03:33:29.338Z,93.50
2019-03-22T03:35:55.488Z,94.00
2019-03-22T03:38:21.636Z,93.10
2019-03-22T03:40:47.772Z,93.70
2019-03-22T03:43:13.920Z,93.90
2019-03-22T03:45:40.072Z,94.10
2019-03-22T03:48:09.508Z,93.00
2019-03-22T03:50:35.748Z,92.80
2019-03-22T03:53:02.705Z,91.90
2019-03-22T03:55:28.850Z,91.00
2019-03-22T03:57:55.078Z,93.50
2019-03-22T04:00:21.219Z,93.70
2019-03-22T04:02:47.560Z,94.20
2019-03-22T04:05:14.691Z,94.20
2019-03-22T04:07:41.057Z,94.50
2019-03-22T04:10:07.601Z,94.40
2019-03-22T04:12:33.749Z,94.30
2019-03-22T04:15:00.460Z,94.20
2019-03-22T04:17:26.757Z,92.20
2019-03-22T04:19:53.173Z,91.90
2019-03-22T04:22:19.318Z,92.20
2019-03-22T04:24:45.473Z,91.60
2019-03-22T04:27:11.603Z,91.70
2019-03-22T04:29:37.743Z,91.70
2019-03-22T04:32:03.886Z,92.60
2019-03-22T04:34:30.034Z,94.40
2019-03-22T04:36:56.471Z,94.70
2019-03-22T04:39:22.621Z,94.80
2019-03-22T04:41:48.764Z,95.10
2019-03-22T04:44:14.907Z,95.10
2019-03-22T04:46:43.151Z,94.80
2019-03-22T04:49:10.807Z,94.30
2019-03-22T04:51:37.849Z,92.70
2019-03-22T04:54:05.146Z,92.30
2019-03-22T04:56:34.549Z,92.00
2019-03-22T04:59:03.012Z,92.60
2019-03-22T05:01:30.433Z,94.20
2019-03-22T05:03:59.069Z,94.70
2019-03-22T05:06:25.436Z,95.10
2019-03-22T05:08:54.263Z,95.00
2019-03-22T05:11:21.198Z,95.00
2019-03-22T05:13:50.349Z,95.00
2019-03-22T05:16:19.388Z,95.20
2019-03-22T05:18:47.239Z,95.00
2019-03-22T05:21:14.488Z,94.90
2019-03-22T05:23:41.318Z,95.20
2019-03-22T05:26:07.955Z,92.90
2019-03-22T05:28:34.786Z,93.20
2019-03-22T05:31:10.672Z,94.90
2019-03-22T05:33:37.106Z,94.90
2019-03-22T05:36:03.255Z,95.40
2019-03-22T05:38:29.628Z,95.30
2019-03-22T05:40:56.091Z,95.50
2019-03-22T05:43:22.227Z,95.30
2019-03-22T05:45:48.379Z,95.10
2019-03-22T05:48:14.530Z,95.30
2019-03-22T05:50:40.682Z,94.80
2019-03-22T05:53:06.837Z,93.80
2019-03-22T05:55:33.003Z,93.40
2019-03-22T05:57:59.152Z,94.60
2019-03-22T06:00:25.298Z,95.00
2019-03-22T06:02:51.434Z,95.20
2019-03-22T06:05:18.702Z,95.60
2019-03-22T06:07:44.842Z,95.30
2019-03-22T06:10:11.378Z,95.40
2019-03-22T06:12:37.530Z,95.50
2019-03-22T06:15:07.290Z,95.50
2019-03-22T06:17:34.439Z,95.10
2019-03-22T06:20:00.590Z,93.30
2019-03-22T06:22:26.731Z,93.50
2019-03-22T06:24:53.129Z,93.20
2019-03-22T06:27:19.559Z,94.10
2019-03-22T06:29:54.156Z,93.90
2019-03-22T06:32:13.759Z,93.50
2019-03-22T06:34:39.900Z,92.80
2019-03-22T06:37:06.043Z,92.40
2019-03-22T06:39:32.185Z,91.60
2019-03-22T06:41:58.369Z,90.80
2019-03-22T06:44:24.567Z,90.60
2019-03-22T06:46:50.727Z,90.60
2019-03-22T06:49:16.871Z,90.30
2019-03-22T06:51:43.011Z,90.20
2019-03-22T06:54:09.146Z,89.60
2019-03-22T06:56:35.296Z,89.70
2019-03-22T06:59:01.443Z,87.60
2019-03-22T07:01:27.888Z,87.10
2019-03-22T07:03:54.030Z,88.10
2019-03-22T07:06:20.177Z,87.30
2019-03-22T07:08:46.327Z,86.60
2019-03-22T07:11:12.455Z,86.20
2019-03-22T07:13:38.609Z,85.80
2019-03-22T07:16:04.786Z,86.70
2019-03-22T07:18:31.389Z,87.20
2019-03-22T07:20:57.546Z,86.80
2019-03-22T07:23:23.699Z,86.70
2019-03-22T07:25:49.852Z,86.70
2019-03-22T07:28:16.299Z,86.10
2019-03-22T07:30:42.432Z,85.80
2019-03-22T07:33:08.603Z,84.50
2019-03-22T07:35:35.098Z,83.10
2019-03-22T07:38:01.651Z,81.80
2019-03-22T07:40:27.799Z,79.70
2019-03-22T07:42:53.953Z,78.20
2019-03-22T07:45:20.409Z,78.30
2019-03-22T07:47:46.555Z,77.90
2019-03-22T07:50:12.724Z,77.80
2019-03-22T07:52:38.875Z,75.70
2019-03-22T07:55:05.928Z,75.10
2019-03-22T07:57:32.087Z,72.20
2019-03-22T07:59:58.253Z,72.60
2019-03-22T08:02:25.584Z,71.60
2019-03-22T08:04:53.508Z,69.70
2019-03-22T08:07:19.665Z,67.80
2019-03-22T08:09:46.917Z,67.80
2019-03-22T08:12:13.308Z,69.30
2019-03-22T08:14:39.468Z,67.90
2019-03-22T08:17:05.615Z,67.30
2019-03-22T08:19:31.974Z,68.10
2019-03-22T08:21:58.314Z,65.50
2019-03-22T08:24:24.507Z,64.10
2019-03-22T08:26:50.644Z,64.10
2019-03-22T08:29:16.803Z,63.80
2019-03-22T08:31:42.952Z,62.40
2019-03-22T08:34:09.137Z,61.40
2019-03-22T08:36:35.309Z,60.20
2019-03-22T08:39:01.763Z,59.40
2019-03-22T08:41:29.411Z,60.80
2019-03-22T08:43:55.696Z,61.00
2019-03-22T08:46:21.918Z,60.20
2019-03-22T08:48:48.068Z,61.40
2019-03-22T08:51:14.223Z,60.90
2019-03-22T08:53:40.483Z,58.90
2019-03-22T08:56:06.668Z,58.50
2019-03-22T08:58:32.850Z,60.40
2019-03-22T09:00:59.995Z,58.30
2019-03-22T09:03:26.158Z,58.00
2019-03-22T09:05:52.422Z,56.50
2019-03-22T09:08:18.616Z,57.60
2019-03-22T09:10:44.841Z,54.90
2019-03-22T09:13:10.987Z,55.10
2019-03-22T09:15:41.095Z,55.20
2019-03-22T09:18:05.281Z,54.50
2019-03-22T09:20:31.480Z,55.70
2019-03-22T09:22:57.643Z,54.70
2019-03-22T09:25:23.871Z,54.40
2019-03-22T09:27:50.021Z,53.10
2019-03-22T09:30:16.392Z,52.50
2019-03-22T09:32:42.547Z,53.00
2019-03-22T09:35:08.810Z,52.00
2019-03-22T09:37:34.956Z,52.70
2019-03-22T09:40:01.255Z,51.90
2019-03-22T09:42:27.877Z,52.80
2019-03-22T09:44:55.041Z,51.90
2019-03-22T09:47:21.210Z,50.40
2019-03-22T09:49:47.488Z,50.20
2019-03-22T09:52:13.615Z,50.10
2019-03-22T09:54:39.831Z,49.20
2019-03-22T09:57:06.044Z,50.20
2019-03-22T09:59:32.208Z,49.10
2019-03-22T10:01:58.439Z,49.00
2019-03-22T10:04:24.595Z,48.20
2019-03-22T10:06:50.755Z,48.90
2019-03-22T10:09:17.321Z,48.60
2019-03-22T10:11:43.852Z,47.20
2019-03-22T10:14:10.067Z,47.70
2019-03-22T10:16:36.667Z,47.60
2019-03-22T10:19:02.904Z,47.70
2019-03-22T10:21:29.044Z,48.10
2019-03-22T10:23:55.521Z,48.70
2019-03-22T10:26:21.764Z,50.00
2019-03-22T10:28:47.923Z,50.50
2019-03-22T10:31:14.107Z,50.60
2019-03-22T10:33:40.340Z,50.20
2019-03-22T10:36:06.500Z,50.40
2019-03-22T10:38:32.687Z,50.30
2019-03-22T10:40:58.897Z,50.90
2019-03-22T10:43:25.160Z,50.30
2019-03-22T10:45:51.327Z,49.70
2019-03-22T10:48:17.483Z,50.30
2019-03-22T10:50:43.770Z,49.60
2019-03-22T10:53:10.014Z,50.80
2019-03-22T10:55:36.329Z,50.20
2019-03-22T10:58:03.827Z,49.30
2019-03-22T11:00:29.979Z,48.40
2019-03-22T11:02:56.130Z,49.20
2019-03-22T11:05:22.293Z,48.70
2019-03-22T11:07:48.428Z,47.70
2019-03-22T11:10:14.704Z,48.50
2019-03-22T11:12:41.033Z,47.90
2019-03-22T11:15:10.527Z,47.80
2019-03-22T11:17:36.673Z,47.50
2019-03-22T11:20:08.858Z,46.20
2019-03-22T11:22:35.006Z,45.10
2019-03-22T11:25:01.182Z,45.20
2019-03-22T11:27:27.354Z,44.60
2019-03-22T11:29:53.508Z,44.70
2019-03-22T11:32:20.037Z,44.20
2019-03-22T11:34:46.405Z,44.30
2019-03-22T11:37:12.551Z,44.50
2019-03-22T11:39:38.720Z,43.80
2019-03-22T11:42:04.877Z,45.10
2019-03-22T11:44:32.200Z,44.40
2019-03-22T11:46:58.342Z,44.60
2019-03-22T11:49:24.482Z,43.30
2019-03-22T11:51:50.635Z,43.50
2019-03-22T11:54:17.194Z,43.00
2019-03-22T11:56:43.359Z,43.10
2019-03-22T11:59:09.506Z,42.70
2019-03-22T12:01:36.015Z,41.90
2019-03-22T12:04:02.368Z,41.30
2019-03-22T12:06:28.523Z,41.80
2019-03-22T12:08:54.670Z,41.40
2019-03-22T12:11:20.827Z,41.80
2019-03-22T12:13:46.976Z,41.80
2019-03-22T12:16:13.129Z,42.20
2019-03-22T12:18:39.283Z,42.20
2019-03-22T12:21:05.449Z,41.80
2019-03-22T12:23:31.583Z,42.10
2019-03-22T12:25:57.737Z,42.00
2019-03-22T12:28:23.895Z,41.90
2019-03-22T12:30:50.355Z,42.00
2019-03-22T12:33:16.790Z,42.20
2019-03-22T12:35:42.930Z,42.40
2019-03-22T12:38:09.086Z,41.60
2019-03-22T12:40:35.235Z,41.30
2019-03-22T12:43:01.383Z,42.00
2019-03-22T12:45:29.363Z,42.90
2019-03-22T12:47:55.620Z,42.30
2019-03-22T12:50:22.783Z,41.50
2019-03-22T12:52:48.963Z,41.80
2019-03-22T12:55:15.439Z,42.20
2019-03-22T12:57:41.603Z,42.00
2019-03-22T13:00:14.300Z,42.30
2019-03-22T13:02:42.447Z,42.20
2019-03-22T13:05:10.143Z,42.80
2019-03-22T13:07:36.333Z,43.30
2019-03-22T13:10:06.389Z,42.40
2019-03-22T13:12:32.547Z,42.00
2019-03-22T13:14:58.711Z,42.70
2019-03-22T13:17:25.051Z,42.00
2019-03-22T13:19:51.224Z,42.60
2019-03-22T13:22:17.375Z,42.80
2019-03-22T13:24:43.520Z,42.50
2019-03-22T13:27:09.689Z,41.80
2019-03-22T13:29:35.826Z,42.50
2019-03-22T13:32:01.970Z,42.90
2019-03-22T13:34:29.451Z,42.20
2019-03-22T13:36:55.600Z,42.70
2019-03-22T13:39:21.737Z,42.80
2019-03-22T13:41:47.918Z,42.30
2019-03-22T13:44:14.047Z,42.80
2019-03-22T13:46:40.794Z,42.60
2019-03-22T13:49:07.138Z,42.90
2019-03-22T13:51:33.271Z,43.20
2019-03-22T13:53:59.833Z,42.50
2019-03-22T13:56:25.985Z,42.70
2019-03-22T13:58:52.386Z,43.00
2019-03-22T14:01:18.535Z,42.80
2019-03-22T14:03:44.771Z,42.90
2019-03-22T14:06:10.914Z,43.30
2019-03-22T14:08:37.065Z,42.80
2019-03-22T14:11:03.640Z,42.90
2019-03-22T14:13:31.186Z,42.70
2019-03-22T14:15:57.316Z,42.60
2019-03-22T14:18:23.482Z,43.20
2019-03-22T14:20:49.633Z,43.30
2019-03-22T14:23:15.779Z,43.40
2019-03-22T14:25:42.335Z,43.10
2019-03-22T14:28:08.481Z,42.50
2019-03-22T14:30:34.616Z,41.70
2019-03-22T14:33:00.766Z,41.20
2019-03-22T14:35:28.486Z,41.50
2019-03-22T14:37:54.891Z,41.10
2019-03-22T14:40:21.023Z,40.00
2019-03-22T14:42:47.167Z,39.60
2019-03-22T14:45:13.510Z,39.40
2019-03-22T14:47:39.646Z,39.20
2019-03-22T14:50:06.214Z,39.10
2019-03-22T14:52:32.346Z,39.20
2019-03-22T14:54:58.820Z,40.10
2019-03-22T14:57:24.958Z,39.70
2019-03-22T14:59:58.562Z,38.30
2019-03-22T15:02:19.138Z,37.40
2019-03-22T15:04:46.713Z,37.20
2019-03-22T15:07:19.403Z,35.80
2019-03-22T15:09:40.891Z,36.30
2019-03-22T15:12:07.343Z,34.70
2019-03-22T15:14:47.051Z,33.60
2019-03-22T15:17:30.023Z,34.10
2019-03-22T15:19:58.077Z,33.40
2019-03-22T15:22:28.623Z,34.00
2019-03-22T15:25:08.744Z,34.00
2019-03-22T15:27:51.874Z,33.80
2019-03-22T15:30:28.979Z,33.50
2019-03-22T15:33:02.832Z,34.20
2019-03-22T15:35:47.303Z,33.80
2019-03-22T15:38:15.431Z,34.00
2019-03-22T15:40:41.579Z,33.30
2019-03-22T15:43:07.828Z,33.70
2019-03-22T15:45:33.973Z,34.20
2019-03-22T15:48:00.097Z,34.00
2019-03-22T15:50:26.236Z,33.80
2019-03-22T15:52:52.415Z,33.80
2019-03-22T15:55:18.599Z,34.20
2019-03-22T15:57:44.739Z,34.10
2019-03-22T16:00:14.203Z,34.30
2019-03-22T16:02:41.554Z,34.40
2019-03-22T16:05:07.987Z,34.30
2019-03-22T16:07:34.136Z,34.50
2019-03-22T16:10:00.258Z,34.60
2019-03-22T16:12:26.409Z,34.70
2019-03-22T16:14:52.531Z,35.10
2019-03-22T16:17:18.679Z,34.30
2019-03-22T16:19:45.079Z,34.50
2019-03-22T16:22:11.218Z,34.80
2019-03-22T16:24:37.371Z,34.90
2019-03-22T16:27:04.262Z,34.50
2019-03-22T16:29:30.411Z,34.80
2019-03-22T16:31:56.551Z,34.90
2019-03-22T16:34:22.695Z,35.20
2019-03-22T16:36:48.847Z,35.10
2019-03-22T16:39:14.990Z,35.10
2019-03-22T16:41:41.145Z,35.20
2019-03-22T16:44:08.287Z,35.60
2019-03-22T16:46:34.424Z,35.80
2019-03-22T16:49:00.568Z,36.10
2019-03-22T16:51:26.715Z,36.40
2019-03-22T16:53:52.864Z,35.80
2019-03-22T16:56:19.332Z,36.30
2019-03-22T16:58:45.473Z,36.40
2019-03-22T17:01:11.891Z,36.80
2019-03-22T17:03:38.030Z,36.50
2019-03-22T17:06:04.168Z,37.10
2019-03-22T17:08:30.562Z,37.20
2019-03-22T17:10:56.692Z,37.50
2019-03-22T17:13:23.047Z,37.50
2019-03-22T17:15:49.187Z,38.00
2019-03-22T17:18:15.359Z,38.10
2019-03-22T17:20:41.511Z,38.30
2019-03-22T17:23:07.659Z,38.30
2019-03-22T17:25:33.803Z,38.40
2019-03-22T17:28:00.292Z,38.90
2019-03-22T17:30:26.433Z,39.50
2019-03-22T17:32:52.574Z,39.50
2019-03-22T17:35:18.722Z,39.70
2019-03-22T17:37:44.876Z,40.30
2019-03-22T17:40:11.740Z,40.30
2019-03-22T17:42:37.884Z,40.60
2019-03-22T17:45:06.731Z,41.00
2019-03-22T17:47:32.861Z,41.40
2019-03-22T17:49:59.007Z,41.60
2019-03-22T17:52:25.139Z,41.80
2019-03-22T17:54:51.296Z,42.30
2019-03-22T17:57:18.961Z,42.70
2019-03-22T17:59:45.391Z,43.20
2019-03-22T18:02:11.520Z,43.10
2019-03-22T18:04:37.662Z,43.60
2019-03-22T18:07:04.894Z,43.60
2019-03-22T18:09:31.040Z,44.70
2019-03-22T18:11:57.424Z,44.90
2019-03-22T18:14:23.574Z,44.60
2019-03-22T18:16:49.714Z,45.10
2019-03-22T18:19:15.869Z,46.10
2019-03-22T18:21:42.007Z,46.80
2019-03-22T18:24:08.164Z,48.40
2019-03-22T18:26:34.286Z,48.50
2019-03-22T18:29:00.439Z,48.60
2019-03-22T18:31:26.577Z,48.50
2019-03-22T18:33:52.718Z,48.10
2019-03-22T18:36:18.850Z,48.50
2019-03-22T18:38:45.023Z,49.40
2019-03-22T18:41:11.169Z,50.70
2019-03-22T18:43:37.318Z,50.90
2019-03-22T18:46:03.445Z,51.80
2019-03-22T18:48:29.939Z,51.80
2019-03-22T18:50:56.967Z,51.40
2019-03-22T18:53:24.518Z,52.40
2019-03-22T18:55:50.659Z,51.80
2019-03-22T18:58:16.803Z,52.50
2019-03-22T19:00:42.957Z,53.00
2019-03-22T19:03:09.101Z,52.70
2019-03-22T19:05:36.352Z,55.40
2019-03-22T19:08:02.511Z,55.00
2019-03-22T19:10:28.671Z,53.80
2019-03-22T19:12:54.811Z,54.70
2019-03-22T19:15:20.961Z,54.30
2019-03-22T19:17:47.126Z,56.20
2019-03-22T19:20:14.330Z,57.40
2019-03-22T19:22:40.475Z,56.50
2019-03-22T19:25:07.262Z,56.30
2019-03-22T19:27:33.406Z,58.10
2019-03-22T19:29:59.610Z,57.80
2019-03-22T19:32:25.808Z,56.70
2019-03-22T19:34:54.671Z,58.30
2019-03-22T19:37:20.028Z,59.80
2019-03-22T19:39:46.492Z,60.00
2019-03-22T19:42:12.901Z,58.10
2019-03-22T19:44:39.084Z,60.00
2019-03-22T19:47:05.220Z,60.10
2019-03-22T19:49:31.395Z,60.60
2019-03-22T19:51:58.839Z,60.80
2019-03-22T19:54:24.992Z,60.40
2019-03-22T19:56:51.158Z,62.40
2019-03-22T19:59:17.479Z,61.90
2019-03-22T20:01:43.712Z,62.20
2019-03-22T20:04:10.031Z,62.80
2019-03-22T20:06:36.232Z,62.70
2019-03-22T20:09:06.602Z,63.00
2019-03-22T20:11:33.991Z,63.20
2019-03-22T20:14:00.367Z,62.80
2019-03-22T20:16:26.511Z,63.30
2019-03-22T20:18:53.091Z,64.20
2019-03-22T20:21:20.235Z,62.70
2019-03-22T20:23:53.692Z,64.40
2019-03-22T20:26:14.499Z,64.20
2019-03-22T20:28:41.016Z,65.30
2019-03-22T20:31:07.208Z,67.20
2019-03-22T20:33:33.365Z,66.40
2019-03-22T20:35:59.898Z,66.70
2019-03-22T20:38:26.061Z,64.60
2019-03-22T20:40:52.233Z,66.90
2019-03-22T20:43:21.046Z,66.10
2019-03-22T20:45:47.038Z,66.80
2019-03-22T20:48:13.199Z,66.50
2019-03-22T20:50:39.693Z,66.40
2019-03-22T20:53:06.119Z,67.50
2019-03-22T20:55:32.367Z,67.30
2019-03-22T20:57:58.566Z,69.20
2019-03-22T21:00:24.727Z,68.60
2019-03-22T21:02:50.891Z,69.30
2019-03-22T21:05:26.374Z,70.30
2019-03-22T21:07:45.116Z,69.60
2019-03-22T21:10:11.397Z,70.10
2019-03-22T21:12:38.566Z,69.30
2019-03-22T21:15:07.489Z,68.90
2019-03-22T21:17:34.055Z,68.30
2019-03-22T21:20:00.380Z,69.40
2019-03-22T21:22:26.590Z,67.90
2019-03-22T21:24:52.845Z,68.30
2019-03-22T21:27:19.179Z,69.60
2019-03-22T21:29:45.321Z,69.80
2019-03-22T21:32:11.482Z,69.30
2019-03-22T21:34:37.633Z,69.40
2019-03-22T21:37:03.801Z,70.00
2019-03-22T21:39:30.199Z,69.90
2019-03-22T21:41:56.355Z,69.40
2019-03-22T21:44:22.506Z,68.90
2019-03-22T21:46:48.667Z,69.00
2019-03-22T21:49:14.823Z,70.40
2019-03-22T21:51:40.988Z,70.60
2019-03-22T21:54:07.186Z,70.90
2019-03-22T21:56:33.374Z,72.80
2019-03-22T21:58:59.588Z,73.40
2019-03-22T22:01:25.757Z,73.20
2019-03-22T22:03:52.191Z,72.40
2019-03-22T22:06:18.361Z,71.90
2019-03-22T22:08:44.577Z,72.40
2019-03-22T22:11:10.752Z,72.30
2019-03-22T22:13:36.907Z,73.70
2019-03-22T22:16:04.081Z,72.20
2019-03-22T22:18:30.607Z,73.80
2019-03-22T22:20:56.776Z,74.20
2019-03-22T22:23:23.014Z,73.90
2019-03-22T22:25:49.339Z,73.30
2019-03-22T22:28:15.512Z,71.90
2019-03-22T22:30:41.683Z,74.50
2019-03-22T22:33:07.900Z,73.50
2019-03-22T22:35:34.159Z,70.10
2019-03-22T22:38:00.348Z,70.10
2019-03-22T22:40:26.519Z,68.30
2019-03-22T22:42:52.696Z,69.40
2019-03-22T22:45:18.870Z,71.00
2019-03-22T22:47:45.040Z,70.70
2019-03-22T22:50:11.416Z,70.50
2019-03-22T22:52:38.588Z,69.70
2019-03-22T22:55:05.765Z,69.20
2019-03-22T22:57:31.911Z,69.30
2019-03-22T22:59:58.092Z,69.30
2019-03-22T23:02:24.279Z,69.60
2019-03-22T23:04:50.451Z,69.90
2019-03-22T23:07:16.612Z,69.80
2019-03-22T23:09:42.748Z,70.50
2019-03-22T23:12:08.911Z,70.50
2019-03-22T23:14:35.381Z,70.60
2019-03-22T23:17:01.530Z,70.80
2019-03-22T23:19:27.669Z,71.00
2019-03-22T23:21:53.821Z,71.30
2019-03-22T23:24:20.024Z,71.50
2019-03-22T23:26:46.189Z,71.70
2019-03-22T23:29:12.644Z,71.80
2019-03-22T23:31:38.784Z,72.20
2019-03-22T23:34:04.954Z,72.50
2019-03-22T23:36:31.147Z,72.90
2019-03-22T23:38:57.538Z,73.10
2019-03-22T23:41:23.770Z,73.40
2019-03-22T23:43:49.916Z,73.70
2019-03-22T23:46:16.335Z,73.80
2019-03-22T23:48:42.523Z,73.90
2019-03-22T23:51:08.702Z,74.10
2019-03-22T23:53:34.884Z,74.20
2019-03-22T23:56:01.063Z,74.40
2019-03-22T23:58:27.221Z,74.80
